Time;durP1;ratioP1;P1;durP2;ratioP2;P2;SDS_P1;SDS_P2;PMS_P1;PMS_P2;Temp;Humidity;BMP_temperature;BMP_pressure;BME280_temperature;BME280_humidity;BME280_pressure;Samples;Min_cycle;Max_cycle;Signal;HPM_P1;HPM_P2
2022/03/22 00:01:04;;;;;;;28.50;19.15;;;;;;;;;;4977645;28;20096;-80
2022/03/22 00:03:30;;;;;;;27.98;18.20;;;;;;;;;;4975040;28;20031;-81
2022/03/22 00:05:55;;;;;;;32.53;18.70;;;;;;;;;;4975235;28;20030;-81
2022/03/22 00:08:21;;;;;;;33.28;19.45;;;;;;;;;;4985127;28;20030;-83
2022/03/22 00:10:47;;;;;;;29.20;19.45;;;;;;;;;;4968296;28;20065;-82
2022/03/22 00:13:12;;;;;;;28.88;19.05;;;;;;;;;;4984240;28;20061;-82
2022/03/22 00:15:38;;;;;;;32.80;20.42;;;;;;;;;;4997963;28;20041;-82
2022/03/22 00:18:04;;;;;;;29.38;19.08;;;;;;;;;;4975205;28;20037;-80
2022/03/22 00:20:30;;;;;;;31.15;19.77;;;;;;;;;;4977126;28;20026;-83
2022/03/22 00:22:57;;;;;;;30.23;18.73;;;;;;;;;;4965041;28;20437;-82
2022/03/22 00:25:23;;;;;;;34.90;19.33;;;;;;;;;;4997914;28;20046;-80
2022/03/22 00:27:52;;;;;;;30.55;19.30;;;;;;;;;;4983271;28;20390;-81
2022/03/22 00:30:32;;;;;;;29.35;19.30;;;;;;;;;;4970595;28;20517;-81
2022/03/22 00:33:00;;;;;;;27.45;18.73;;;;;;;;;;4977237;28;20102;-83
2022/03/22 00:35:28;;;;;;;29.25;18.77;;;;;;;;;;4970005;28;20118;-82
2022/03/22 00:37:56;;;;;;;29.45;18.35;;;;;;;;;;4981551;28;20487;-80
2022/03/22 00:40:24;;;;;;;25.25;18.25;;;;;;;;;;4980964;28;20053;-80
2022/03/22 00:42:52;;;;;;;28.30;18.20;;;;;;;;;;4983525;28;20490;-81
2022/03/22 00:45:19;;;;;;;28.38;17.23;;;;;;;;;;4974992;28;20030;-81
2022/03/22 00:47:48;;;;;;;27.00;17.92;;;;;;;;;;4965152;28;20033;-81
2022/03/22 00:50:16;;;;;;;29.20;17.20;;;;;;;;;;4981820;28;20037;-81
2022/03/22 00:52:41;;;;;;;28.02;16.70;;;;;;;;;;4964394;28;20471;-81
2022/03/22 00:55:09;;;;;;;26.48;16.85;;;;;;;;;;4984532;28;20125;-82
2022/03/22 00:57:35;;;;;;;27.05;17.33;;;;;;;;;;4967661;28;20483;-81
2022/03/22 01:00:07;;;;;;;23.55;16.35;;;;;;;;;;4948746;28;20100;-80
2022/03/22 01:02:37;;;;;;;24.38;16.90;;;;;;;;;;4990570;28;20022;-83
2022/03/22 01:05:07;;;;;;;22.85;16.15;;;;;;;;;;4985420;28;20034;-80
2022/03/22 01:07:36;;;;;;;25.48;16.30;;;;;;;;;;4999580;28;20414;-80
2022/03/22 01:10:05;;;;;;;24.25;16.80;;;;;;;;;;4973680;28;20030;-81
2022/03/22 01:12:31;;;;;;;27.63;16.77;;;;;;;;;;4967147;28;20480;-81
2022/03/22 01:14:57;;;;;;;25.63;16.83;;;;;;;;;;5002158;28;20100;-83
2022/03/22 01:17:22;;;;;;;22.42;16.48;;;;;;;;;;4998540;28;20081;-81
2022/03/22 01:19:47;;;;;;;25.23;16.48;;;;;;;;;;4985977;28;21148;-82
2022/03/22 01:22:15;;;;;;;23.90;16.48;;;;;;;;;;4983713;28;20054;-81
2022/03/22 01:24:42;;;;;;;25.05;16.88;;;;;;;;;;4963689;28;20033;-81
2022/03/22 01:27:07;;;;;;;28.27;16.67;;;;;;;;;;4963610;28;20132;-81
2022/03/22 01:29:33;;;;;;;27.85;16.27;;;;;;;;;;4997957;28;20044;-81
2022/03/22 01:31:59;;;;;;;23.88;16.45;;;;;;;;;;4964837;28;20117;-81
2022/03/22 01:34:24;;;;;;;24.45;16.05;;;;;;;;;;4981257;28;21991;-81
2022/03/22 01:36:50;;;;;;;22.75;15.75;;;;;;;;;;4964021;28;20084;-80
2022/03/22 01:39:15;;;;;;;24.65;16.42;;;;;;;;;;4980946;28;20129;-81
2022/03/22 01:41:40;;;;;;;24.38;16.23;;;;;;;;;;4992107;28;20038;-81
2022/03/22 01:44:06;;;;;;;20.33;14.82;;;;;;;;;;4961316;28;20128;-79
2022/03/22 01:46:35;;;;;;;26.42;16.30;;;;;;;;;;4981658;28;20045;-80
2022/03/22 01:49:01;;;;;;;24.15;16.90;;;;;;;;;;4967402;28;20080;-83
2022/03/22 01:51:31;;;;;;;23.23;15.75;;;;;;;;;;4983912;28;20571;-82
2022/03/22 01:53:57;;;;;;;24.85;15.88;;;;;;;;;;4969610;28;20038;-79
2022/03/22 01:56:22;;;;;;;21.92;15.43;;;;;;;;;;4969169;28;20490;-81
2022/03/22 01:58:48;;;;;;;24.67;15.10;;;;;;;;;;4986443;28;20030;-79
2022/03/22 02:06:45;;;;;;;25.55;16.73;;;;;;;;;;4983062;28;21694;-81
2022/03/22 02:09:10;;;;;;;23.17;15.85;;;;;;;;;;4975422;28;20129;-82
2022/03/22 02:11:36;;;;;;;24.42;15.93;;;;;;;;;;4996256;28;20040;-80
2022/03/22 02:14:01;;;;;;;29.52;16.13;;;;;;;;;;4962793;28;20036;-81
2022/03/22 02:16:27;;;;;;;24.13;16.45;;;;;;;;;;4968871;28;20023;-82
2022/03/22 02:18:53;;;;;;;26.20;15.82;;;;;;;;;;4967242;28;20129;-81
2022/03/22 02:21:19;;;;;;;24.27;15.80;;;;;;;;;;4970788;28;20138;-79
2022/03/22 02:23:49;;;;;;;24.63;15.57;;;;;;;;;;4965733;28;20085;-79
2022/03/22 02:26:14;;;;;;;26.15;16.77;;;;;;;;;;4969064;28;20109;-82
2022/03/22 02:28:42;;;;;;;27.75;16.35;;;;;;;;;;4985968;28;20161;-80
2022/03/22 02:31:07;;;;;;;24.98;16.10;;;;;;;;;;5000403;28;20022;-82
2022/03/22 02:33:33;;;;;;;26.45;16.48;;;;;;;;;;4988474;28;20034;-82
2022/03/22 02:35:58;;;;;;;25.02;15.95;;;;;;;;;;4984290;28;20421;-83
2022/03/22 02:38:23;;;;;;;26.85;16.60;;;;;;;;;;4971310;28;20037;-82
2022/03/22 02:40:48;;;;;;;27.63;16.27;;;;;;;;;;4968232;28;20117;-82
2022/03/22 02:43:14;;;;;;;25.83;16.10;;;;;;;;;;4983329;28;20435;-80
2022/03/22 02:45:40;;;;;;;26.38;16.05;;;;;;;;;;4988237;28;20084;-82
2022/03/22 02:48:05;;;;;;;25.65;16.48;;;;;;;;;;4964571;28;20057;-82
2022/03/22 02:50:30;;;;;;;23.83;16.38;;;;;;;;;;4966826;28;20140;-82
2022/03/22 02:52:55;;;;;;;24.73;16.13;;;;;;;;;;4972467;28;20054;-82
2022/03/22 02:55:21;;;;;;;28.45;15.95;;;;;;;;;;4988192;28;20122;-80
2022/03/22 02:57:46;;;;;;;25.30;16.30;;;;;;;;;;4982787;28;20084;-80
2022/03/22 03:00:12;;;;;;;25.67;15.88;;;;;;;;;;4968551;28;20046;-80
2022/03/22 03:02:56;;;;;;;24.45;16.27;;;;;;;;;;4983595;28;20695;-80
2022/03/22 03:05:22;;;;;;;24.83;15.77;;;;;;;;;;4968358;28;20048;-80
2022/03/22 03:07:50;;;;;;;23.77;15.73;;;;;;;;;;4996124;28;20022;-80
2022/03/22 03:10:15;;;;;;;23.88;16.02;;;;;;;;;;4983264;28;20077;-82
2022/03/22 03:12:41;;;;;;;23.33;16.42;;;;;;;;;;4964354;28;20182;-80
2022/03/22 03:15:09;;;;;;;24.15;16.25;;;;;;;;;;4982111;28;20026;-81
2022/03/22 03:17:35;;;;;;;25.27;16.73;;;;;;;;;;4986960;28;20121;-82
2022/03/22 03:20:01;;;;;;;24.33;16.27;;;;;;;;;;4967850;28;20567;-79
2022/03/22 03:22:26;;;;;;;24.17;16.08;;;;;;;;;;4967107;28;20038;-81
2022/03/22 03:24:52;;;;;;;27.13;16.33;;;;;;;;;;5006165;28;20376;-80
2022/03/22 03:27:17;;;;;;;23.88;14.85;;;;;;;;;;4999336;28;20026;-80
2022/03/22 03:29:43;;;;;;;24.15;15.88;;;;;;;;;;4966714;28;20046;-82
2022/03/22 03:32:08;;;;;;;25.10;15.75;;;;;;;;;;4969942;28;20038;-81
2022/03/22 03:34:34;;;;;;;22.00;14.80;;;;;;;;;;4972304;28;20031;-82
2022/03/22 03:37:00;;;;;;;24.33;15.90;;;;;;;;;;4984401;28;20022;-81
2022/03/22 03:39:26;;;;;;;22.17;14.90;;;;;;;;;;4967596;28;20053;-81
2022/03/22 03:41:55;;;;;;;26.13;15.38;;;;;;;;;;4970846;28;20391;-79
2022/03/22 03:47:13;;;;;;;27.42;15.30;;;;;;;;;;4988215;28;20392;-80
2022/03/22 03:49:41;;;;;;;26.48;15.65;;;;;;;;;;4989572;28;20072;-83
2022/03/22 03:52:09;;;;;;;23.40;15.27;;;;;;;;;;4966348;28;20074;-82
2022/03/22 03:54:34;;;;;;;23.45;15.45;;;;;;;;;;4970366;28;20062;-79
2022/03/22 03:57:00;;;;;;;25.45;15.63;;;;;;;;;;4990823;28;20081;-80
2022/03/22 03:59:25;;;;;;;24.48;14.82;;;;;;;;;;5002529;28;20021;-79
2022/03/22 04:01:51;;;;;;;25.17;16.52;;;;;;;;;;5003818;28;20490;-80
2022/03/22 04:04:16;;;;;;;23.98;15.90;;;;;;;;;;4967536;28;20039;-81
2022/03/22 04:06:42;;;;;;;26.15;15.85;;;;;;;;;;4989742;28;20030;-80
2022/03/22 04:09:07;;;;;;;24.10;15.40;;;;;;;;;;4972628;28;20037;-80
2022/03/22 04:11:32;;;;;;;23.50;15.65;;;;;;;;;;4985259;28;20391;-79
2022/03/22 04:13:57;;;;;;;23.30;15.32;;;;;;;;;;4984490;28;20042;-80
2022/03/22 04:16:23;;;;;;;24.20;14.98;;;;;;;;;;5005791;28;20056;-80
2022/03/22 04:18:50;;;;;;;23.40;15.65;;;;;;;;;;4986297;28;20035;-80
2022/03/22 04:21:16;;;;;;;25.88;15.80;;;;;;;;;;4971453;28;20390;-80
2022/03/22 04:23:41;;;;;;;25.85;15.25;;;;;;;;;;5004873;28;20030;-81
2022/03/22 04:26:06;;;;;;;22.30;15.88;;;;;;;;;;4972384;28;20113;-82
2022/03/22 04:34:01;;;;;;;25.10;15.80;;;;;;;;;;4987345;28;20080;-81
2022/03/22 04:36:28;;;;;;;27.13;15.23;;;;;;;;;;4998102;28;20033;-82
2022/03/22 04:38:54;;;;;;;25.23;15.50;;;;;;;;;;4989758;28;20499;-82
2022/03/22 04:41:19;;;;;;;26.67;15.35;;;;;;;;;;4997613;28;20026;-81
2022/03/22 04:43:45;;;;;;;25.13;15.85;;;;;;;;;;4984810;28;20136;-80
2022/03/22 04:46:10;;;;;;;26.05;16.30;;;;;;;;;;4986475;28;20053;-80
2022/03/22 04:48:36;;;;;;;25.88;15.85;;;;;;;;;;4967885;28;20022;-80
2022/03/22 04:56:50;;;;;;;;;;;;;;;;;;4948050;28;19953;-80
2022/03/22 04:59:24;;;;;;;24.40;13.95;;;;;;;;;;4953244;28;20321;-80
2022/03/22 05:01:50;;;;;;;22.23;15.73;;;;;;;;;;4972054;28;20029;-80
2022/03/22 05:04:15;;;;;;;22.05;14.63;;;;;;;;;;4971317;28;20048;-82
2022/03/22 05:06:41;;;;;;;22.20;15.15;;;;;;;;;;4987112;28;20018;-82
2022/03/22 05:09:07;;;;;;;26.80;15.80;;;;;;;;;;4990389;28;20104;-81
2022/03/22 05:11:33;;;;;;;25.25;15.43;;;;;;;;;;4985782;28;20027;-79
2022/03/22 05:13:59;;;;;;;23.55;16.27;;;;;;;;;;4969102;28;20087;-80
2022/03/22 05:16:25;;;;;;;25.40;15.63;;;;;;;;;;4997511;28;20080;-80
2022/03/22 05:18:51;;;;;;;23.05;14.77;;;;;;;;;;4964986;28;20376;-80
2022/03/22 05:21:17;;;;;;;23.50;15.70;;;;;;;;;;4986465;28;20050;-80
2022/03/22 05:23:45;;;;;;;25.08;15.82;;;;;;;;;;4969691;28;20046;-81
2022/03/22 05:26:11;;;;;;;27.25;15.23;;;;;;;;;;4982170;28;20042;-82
2022/03/22 05:28:37;;;;;;;28.27;15.68;;;;;;;;;;4980717;28;20034;-82
2022/03/22 05:31:03;;;;;;;26.00;15.93;;;;;;;;;;4981196;28;20026;-81
2022/03/22 05:33:29;;;;;;;28.08;15.77;;;;;;;;;;4981013;28;20039;-81
2022/03/22 05:35:54;;;;;;;25.10;15.43;;;;;;;;;;4979228;28;20022;-79
2022/03/22 05:38:19;;;;;;;24.80;15.77;;;;;;;;;;4986292;28;20042;-81
2022/03/22 05:40:45;;;;;;;24.95;15.60;;;;;;;;;;4966592;28;20039;-83
2022/03/22 05:43:10;;;;;;;26.85;16.63;;;;;;;;;;4986342;28;20045;-81
2022/03/22 05:45:37;;;;;;;26.48;15.93;;;;;;;;;;4970400;28;20046;-81
2022/03/22 05:48:05;;;;;;;26.25;16.50;;;;;;;;;;4986300;28;20027;-81
2022/03/22 05:50:32;;;;;;;23.83;15.80;;;;;;;;;;4987426;28;20045;-81
2022/03/22 05:52:57;;;;;;;27.58;16.92;;;;;;;;;;4971999;28;20030;-82
2022/03/22 05:55:23;;;;;;;26.27;16.33;;;;;;;;;;5001891;28;20030;-81
2022/03/22 05:57:48;;;;;;;22.52;14.60;;;;;;;;;;4972453;28;20026;-81
2022/03/22 06:00:14;;;;;;;24.80;15.40;;;;;;;;;;4999241;28;20022;-81
2022/03/22 06:02:41;;;;;;;24.15;15.45;;;;;;;;;;4981028;28;20033;-81
2022/03/22 06:05:08;;;;;;;23.15;15.70;;;;;;;;;;4987511;28;20172;-82
2022/03/22 06:07:38;;;;;;;23.63;15.73;;;;;;;;;;5002812;28;20077;-81
2022/03/22 06:10:05;;;;;;;27.15;15.40;;;;;;;;;;4982856;28;20053;-82
2022/03/22 06:12:34;;;;;;;27.45;16.70;;;;;;;;;;4989038;28;20160;-80
2022/03/22 06:15:15;;;;;;;26.90;15.55;;;;;;;;;;4970469;28;20406;-82
2022/03/22 06:17:50;;;;;;;26.48;16.15;;;;;;;;;;4983985;28;20042;-80
2022/03/22 06:20:19;;;;;;;22.92;15.50;;;;;;;;;;4996807;28;20030;-82
2022/03/22 06:22:48;;;;;;;27.95;16.75;;;;;;;;;;4973807;28;20453;-80
2022/03/22 06:25:15;;;;;;;26.02;15.75;;;;;;;;;;4986372;28;20078;-80
2022/03/22 06:27:42;;;;;;;27.80;16.42;;;;;;;;;;4973252;28;20061;-80
2022/03/22 06:30:09;;;;;;;27.08;15.50;;;;;;;;;;4964742;28;20061;-82
2022/03/22 06:32:48;;;;;;;25.02;15.75;;;;;;;;;;4968371;28;20507;-80
2022/03/22 06:35:15;;;;;;;27.38;16.35;;;;;;;;;;4967072;28;20038;-80
2022/03/22 06:37:41;;;;;;;24.90;16.08;;;;;;;;;;4998356;28;20487;-80
2022/03/22 06:40:08;;;;;;;26.90;16.20;;;;;;;;;;4996833;28;20057;-81
2022/03/22 06:42:35;;;;;;;23.20;15.65;;;;;;;;;;4982912;28;20042;-82
2022/03/22 06:45:01;;;;;;;26.67;15.82;;;;;;;;;;4980521;28;20034;-80
2022/03/22 06:47:26;;;;;;;25.95;16.00;;;;;;;;;;4966828;28;20061;-80
2022/03/22 06:49:52;;;;;;;28.27;16.80;;;;;;;;;;4970479;28;20030;-83
2022/03/22 06:52:17;;;;;;;27.50;16.90;;;;;;;;;;4973454;28;20029;-80
2022/03/22 06:54:42;;;;;;;27.77;16.90;;;;;;;;;;4988824;28;20037;-81
2022/03/22 06:57:07;;;;;;;26.42;15.65;;;;;;;;;;4976372;28;20042;-81
2022/03/22 06:59:34;;;;;;;26.35;16.10;;;;;;;;;;4986269;28;20551;-81
2022/03/22 07:02:00;;;;;;;23.83;15.80;;;;;;;;;;4988178;28;20033;-81
2022/03/22 07:04:25;;;;;;;28.27;16.63;;;;;;;;;;4969514;28;20018;-81
2022/03/22 07:06:50;;;;;;;26.05;15.90;;;;;;;;;;4967310;28;20037;-81
2022/03/22 07:09:16;;;;;;;29.63;16.48;;;;;;;;;;4969828;28;20027;-81
2022/03/22 07:11:49;;;;;;;28.33;16.95;;;;;;;;;;4969965;28;20056;-80
2022/03/22 07:14:18;;;;;;;25.90;17.45;;;;;;;;;;4972105;28;20406;-80
2022/03/22 07:16:47;;;;;;;25.77;16.23;;;;;;;;;;5008894;28;20038;-82
2022/03/22 07:19:22;;;;;;;32.25;17.38;;;;;;;;;;4972941;28;20061;-80
2022/03/22 07:21:48;;;;;;;26.92;17.25;;;;;;;;;;4979765;28;20026;-80
2022/03/22 07:24:17;;;;;;;29.35;17.42;;;;;;;;;;4973997;28;20041;-81
2022/03/22 07:26:42;;;;;;;29.88;17.65;;;;;;;;;;4972573;28;20422;-82
2022/03/22 07:29:08;;;;;;;28.50;18.08;;;;;;;;;;4980834;28;20033;-81
2022/03/22 07:31:37;;;;;;;28.70;17.05;;;;;;;;;;4977761;28;20030;-82
2022/03/22 07:34:17;;;;;;;28.73;16.25;;;;;;;;;;4993819;28;20030;-82
2022/03/22 07:36:44;;;;;;;27.17;17.33;;;;;;;;;;4978893;28;20474;-83
2022/03/22 07:39:11;;;;;;;26.30;16.40;;;;;;;;;;5007296;28;20680;-81
2022/03/22 07:41:38;;;;;;;27.50;17.13;;;;;;;;;;5007554;28;20038;-82
2022/03/22 07:44:05;;;;;;;28.73;16.15;;;;;;;;;;4992155;28;20028;-82
2022/03/22 07:46:30;;;;;;;24.02;16.45;;;;;;;;;;5010409;28;20113;-81
2022/03/22 07:52:57;;;;;;;29.17;16.98;;;;;;;;;;4972502;28;20121;-81
2022/03/22 07:54:26;;;;;;;29.17;17.42;;;;;;;;;;4993877;28;20037;-81
2022/03/22 07:56:51;;;;;;;28.10;17.15;;;;;;;;;;4993631;28;20030;-81
2022/03/22 07:59:16;;;;;;;32.50;18.13;;;;;;;;;;4990421;28;20030;-83
2022/03/22 08:01:43;;;;;;;30.30;18.25;;;;;;;;;;4967929;28;20022;-81
2022/03/22 08:04:08;;;;;;;28.15;17.70;;;;;;;;;;4973007;28;20142;-84
2022/03/22 08:06:34;;;;;;;28.20;17.38;;;;;;;;;;4984804;28;20109;-82
2022/03/22 08:08:59;;;;;;;28.88;17.23;;;;;;;;;;4974512;28;20469;-81
2022/03/22 08:11:24;;;;;;;29.48;17.92;;;;;;;;;;4990232;28;20030;-83
2022/03/22 08:13:49;;;;;;;27.92;16.80;;;;;;;;;;5006634;28;20430;-81
2022/03/22 08:16:15;;;;;;;26.17;17.38;;;;;;;;;;4973877;28;20121;-83
2022/03/22 08:18:40;;;;;;;25.02;16.45;;;;;;;;;;4986653;28;20118;-83
2022/03/22 08:21:06;;;;;;;31.85;17.00;;;;;;;;;;4993730;28;20455;-81
2022/03/22 08:23:31;;;;;;;29.25;17.63;;;;;;;;;;4973233;28;20049;-81
2022/03/22 08:25:56;;;;;;;27.40;16.63;;;;;;;;;;5010617;28;20113;-81
2022/03/22 08:28:22;;;;;;;30.95;17.63;;;;;;;;;;4975116;28;20105;-82
2022/03/22 08:30:47;;;;;;;27.48;17.45;;;;;;;;;;5008903;28;20088;-81
2022/03/22 08:33:13;;;;;;;26.95;17.80;;;;;;;;;;4990419;28;20038;-82
2022/03/22 08:35:46;;;;;;;29.33;17.55;;;;;;;;;;4974263;28;20404;-82
2022/03/22 08:38:13;;;;;;;28.80;17.48;;;;;;;;;;4975770;28;20474;-83
2022/03/22 08:40:39;;;;;;;25.83;17.73;;;;;;;;;;4974817;28;20775;-84
2022/03/22 08:43:08;;;;;;;29.50;17.73;;;;;;;;;;4975195;28;20054;-81
2022/03/22 08:45:34;;;;;;;30.63;19.00;;;;;;;;;;4974402;28;20096;-81
2022/03/22 08:48:02;;;;;;;28.75;18.02;;;;;;;;;;4978143;28;20050;-83
2022/03/22 08:50:28;;;;;;;31.70;18.20;;;;;;;;;;4974902;28;20054;-83
2022/03/22 08:52:57;;;;;;;31.63;18.40;;;;;;;;;;4994183;28;20088;-84
2022/03/22 08:55:23;;;;;;;30.38;17.60;;;;;;;;;;4991394;28;20026;-84
2022/03/22 08:57:50;;;;;;;29.23;17.83;;;;;;;;;;4994055;28;20030;-81
2022/03/22 09:00:19;;;;;;;27.15;17.55;;;;;;;;;;4969075;28;20022;-80
2022/03/22 09:02:46;;;;;;;27.27;17.30;;;;;;;;;;4973458;28;20077;-82
2022/03/22 09:07:58;;;;;;;28.50;18.50;;;;;;;;;;4993497;28;20034;-81
2022/03/22 09:10:24;;;;;;;25.15;17.85;;;;;;;;;;4975186;28;20030;-84
2022/03/22 09:12:50;;;;;;;30.60;17.98;;;;;;;;;;4992866;28;20066;-81
2022/03/22 09:15:18;;;;;;;28.73;18.40;;;;;;;;;;4973237;28;20065;-81
2022/03/22 09:17:43;;;;;;;28.25;17.75;;;;;;;;;;4973052;28;20096;-83
2022/03/22 09:20:12;;;;;;;28.23;18.15;;;;;;;;;;5015715;28;20030;-83
2022/03/22 09:22:38;;;;;;;31.98;17.50;;;;;;;;;;4990813;28;20420;-82
2022/03/22 09:25:03;;;;;;;26.50;16.92;;;;;;;;;;4976434;28;20096;-81
2022/03/22 09:27:29;;;;;;;28.05;17.35;;;;;;;;;;4976205;28;20026;-82
2022/03/22 09:29:57;;;;;;;27.67;16.85;;;;;;;;;;4988290;28;20034;-80
2022/03/22 09:32:22;;;;;;;24.42;16.27;;;;;;;;;;4991447;28;20025;-81
2022/03/22 09:34:48;;;;;;;27.88;18.15;;;;;;;;;;4976093;28;20034;-80
2022/03/22 09:37:17;;;;;;;27.27;17.63;;;;;;;;;;4975941;28;20040;-81
2022/03/22 09:39:43;;;;;;;30.38;17.60;;;;;;;;;;4975859;28;20050;-85
2022/03/22 09:42:09;;;;;;;30.40;17.08;;;;;;;;;;4988997;28;20037;-81
2022/03/22 09:44:35;;;;;;;24.23;16.90;;;;;;;;;;4976370;28;20490;-85
2022/03/22 09:47:03;;;;;;;30.05;16.95;;;;;;;;;;5009084;28;20458;-80
2022/03/22 09:49:28;;;;;;;27.17;16.50;;;;;;;;;;4991433;28;20023;-81
2022/03/22 09:51:54;;;;;;;31.13;17.90;;;;;;;;;;4992176;28;20569;-84
2022/03/22 09:54:24;;;;;;;28.67;17.48;;;;;;;;;;4989892;28;20026;-84
2022/03/22 09:56:51;;;;;;;29.10;17.88;;;;;;;;;;4973001;28;20075;-84
2022/03/22 09:59:19;;;;;;;27.10;17.20;;;;;;;;;;4999998;28;20483;-84
2022/03/22 10:01:45;;;;;;;24.33;16.67;;;;;;;;;;4990094;28;20022;-81
2022/03/22 10:04:13;;;;;;;28.73;17.90;;;;;;;;;;4989311;28;20030;-80
2022/03/22 10:07:02;;;;;;;26.52;16.80;;;;;;;;;;4981146;28;20022;-85
2022/03/22 10:09:36;;;;;;;27.92;17.55;;;;;;;;;;4987440;28;20109;-84
2022/03/22 10:12:03;;;;;;;23.95;15.23;;;;;;;;;;4976776;28;20101;-81
2022/03/22 10:14:38;;;;;;;24.88;16.42;;;;;;;;;;4991903;28;20030;-80
2022/03/22 10:17:20;;;;;;;28.38;16.02;;;;;;;;;;4971286;28;20066;-80
2022/03/22 10:19:47;;;;;;;28.27;16.75;;;;;;;;;;5006217;28;20027;-81
2022/03/22 10:22:14;;;;;;;27.08;16.67;;;;;;;;;;4982217;28;20013;-81
2022/03/22 10:24:46;;;;;;;27.20;15.43;;;;;;;;;;4988111;28;20026;-81
2022/03/22 10:27:38;;;;;;;23.63;16.00;;;;;;;;;;4977400;28;20034;-84
2022/03/22 10:30:07;;;;;;;26.58;16.30;;;;;;;;;;4991890;28;20061;-84
2022/03/22 10:32:39;;;;;;;26.42;16.08;;;;;;;;;;4973587;28;20038;-81
2022/03/22 10:35:20;;;;;;;27.13;16.80;;;;;;;;;;4977222;28;20442;-83
2022/03/22 10:37:47;;;;;;;25.70;16.98;;;;;;;;;;4992284;28;20045;-81
2022/03/22 10:40:30;;;;;;;26.08;17.00;;;;;;;;;;4975656;28;20570;-80
2022/03/22 10:43:03;;;;;;;28.30;17.40;;;;;;;;;;4976314;28;20041;-81
2022/03/22 10:45:40;;;;;;;30.45;17.63;;;;;;;;;;4993409;28;20026;-81
2022/03/22 10:48:08;;;;;;;27.75;18.25;;;;;;;;;;4976089;28;20124;-80
2022/03/22 10:50:38;;;;;;;26.55;17.02;;;;;;;;;;4989150;28;20501;-81
2022/03/22 10:53:03;;;;;;;34.50;19.23;;;;;;;;;;4977860;28;20142;-80
2022/03/22 10:55:28;;;;;;;27.70;18.02;;;;;;;;;;4973621;28;20637;-81
2022/03/22 10:57:57;;;;;;;28.75;17.27;;;;;;;;;;5000324;28;20402;-80
2022/03/22 11:00:24;;;;;;;29.25;18.63;;;;;;;;;;4986188;28;20541;-81
2022/03/22 11:02:52;;;;;;;24.65;17.52;;;;;;;;;;4973098;28;20038;-82
2022/03/22 11:05:19;;;;;;;28.10;17.52;;;;;;;;;;4989215;28;20382;-80
2022/03/22 11:07:46;;;;;;;26.73;17.92;;;;;;;;;;4974049;28;20023;-80
2022/03/22 11:10:12;;;;;;;30.33;18.33;;;;;;;;;;4992575;28;20030;-80
2022/03/22 11:12:38;;;;;;;29.73;18.15;;;;;;;;;;4992726;28;20045;-80
2022/03/22 11:15:05;;;;;;;26.08;16.50;;;;;;;;;;4973092;28;20027;-80
2022/03/22 11:17:35;;;;;;;25.38;16.80;;;;;;;;;;5006863;28;20026;-82
2022/03/22 11:20:06;;;;;;;26.30;16.35;;;;;;;;;;4970831;28;20487;-83
2022/03/22 11:22:32;;;;;;;26.20;17.08;;;;;;;;;;4992394;28;20085;-81
2022/03/22 11:25:11;;;;;;;27.50;17.90;;;;;;;;;;4987220;28;20030;-83
2022/03/22 11:27:38;;;;;;;27.55;17.77;;;;;;;;;;4972501;28;20030;-80
2022/03/22 11:30:06;;;;;;;26.35;16.83;;;;;;;;;;4988230;28;20937;-80
2022/03/22 11:35:18;;;;;;;24.90;15.35;;;;;;;;;;4988414;28;20141;-85
2022/03/22 11:37:54;;;;;;;22.23;15.57;;;;;;;;;;4992472;28;20461;-81
2022/03/22 11:43:10;;;;;;;27.10;16.40;;;;;;;;;;4990564;28;20049;-84
2022/03/22 11:45:51;;;;;;;23.20;16.20;;;;;;;;;;4973001;28;20042;-84
2022/03/22 11:48:30;;;;;;;27.27;16.92;;;;;;;;;;4990343;28;20046;-83
2022/03/22 11:51:06;;;;;;;28.67;18.88;;;;;;;;;;4988165;28;20076;-81
2022/03/22 11:53:42;;;;;;;27.15;17.58;;;;;;;;;;4995656;28;20030;-80
2022/03/22 11:56:08;;;;;;;28.30;18.23;;;;;;;;;;4984523;28;20025;-81
2022/03/22 11:58:33;;;;;;;33.35;17.38;;;;;;;;;;4991190;28;20386;-79
2022/03/22 12:01:01;;;;;;;27.23;18.42;;;;;;;;;;4989172;28;20030;-79
2022/03/22 12:03:35;;;;;;;27.65;17.60;;;;;;;;;;4990632;28;20030;-83
2022/03/22 12:06:13;;;;;;;27.75;17.45;;;;;;;;;;4995941;28;20037;-82
2022/03/22 12:08:38;;;;;;;24.60;16.70;;;;;;;;;;4993787;28;20034;-82
2022/03/22 12:11:04;;;;;;;30.67;18.17;;;;;;;;;;4992276;28;20037;-81
2022/03/22 12:13:30;;;;;;;28.38;18.13;;;;;;;;;;4978559;28;20049;-80
2022/03/22 12:15:59;;;;;;;26.67;17.60;;;;;;;;;;4987492;28;20054;-80
2022/03/22 12:18:29;;;;;;;28.17;18.08;;;;;;;;;;4972576;28;20033;-80
2022/03/22 12:20:56;;;;;;;25.50;17.95;;;;;;;;;;4986140;28;20054;-84
2022/03/22 12:23:22;;;;;;;27.70;16.95;;;;;;;;;;4973824;28;20030;-81
2022/03/22 12:25:47;;;;;;;29.80;18.42;;;;;;;;;;4967996;28;20065;-82
2022/03/22 12:28:12;;;;;;;22.63;15.90;;;;;;;;;;4970648;28;20112;-80
2022/03/22 12:30:40;;;;;;;30.65;18.35;;;;;;;;;;4972327;28;20022;-79
2022/03/22 12:33:15;;;;;;;25.88;16.67;;;;;;;;;;4992042;28;20044;-79
2022/03/22 12:35:42;;;;;;;26.23;16.83;;;;;;;;;;4969143;28;20613;-83
2022/03/22 12:38:09;;;;;;;25.90;17.25;;;;;;;;;;4975306;28;20084;-81
2022/03/22 12:40:35;;;;;;;27.02;15.80;;;;;;;;;;4974155;28;20042;-84
2022/03/22 12:43:02;;;;;;;24.38;15.88;;;;;;;;;;4973252;28;20422;-80
2022/03/22 12:45:31;;;;;;;30.27;16.42;;;;;;;;;;4953393;28;20525;-79
2022/03/22 12:47:57;;;;;;;27.23;15.98;;;;;;;;;;4973276;28;20045;-79
2022/03/22 12:50:24;;;;;;;27.02;16.45;;;;;;;;;;4987285;28;20030;-83
2022/03/22 12:52:51;;;;;;;27.52;15.25;;;;;;;;;;4973163;28;20048;-79
2022/03/22 12:55:18;;;;;;;28.60;16.30;;;;;;;;;;4988217;28;20057;-80
2022/03/22 12:57:46;;;;;;;26.52;15.10;;;;;;;;;;4969502;28;20145;-81
2022/03/22 13:00:32;;;;;;;26.20;14.48;;;;;;;;;;4972002;28;20042;-81
2022/03/22 13:03:12;;;;;;;25.40;15.00;;;;;;;;;;5002897;28;20410;-80
2022/03/22 13:05:43;;;;;;;30.33;15.15;;;;;;;;;;4982214;28;20495;-81
2022/03/22 13:08:16;;;;;;;24.60;15.50;;;;;;;;;;4972248;28;20403;-80
2022/03/22 13:15:01;;;;;;;27.92;14.55;;;;;;;;;;4982966;28;20506;-83
2022/03/22 13:16:19;;;;;;;24.52;14.15;;;;;;;;;;4986065;28;20411;-80
2022/03/22 13:18:57;;;;;;;24.35;14.43;;;;;;;;;;5002670;28;20037;-81
2022/03/22 13:21:23;;;;;;;25.08;14.57;;;;;;;;;;4970954;28;20467;-79
2022/03/22 13:23:59;;;;;;;22.33;14.55;;;;;;;;;;4986982;28;20026;-82
2022/03/22 13:26:24;;;;;;;23.55;13.82;;;;;;;;;;4993542;28;20040;-80
2022/03/22 13:28:50;;;;;;;23.23;13.20;;;;;;;;;;4986813;28;20383;-80
2022/03/22 13:31:29;;;;;;;27.85;14.88;;;;;;;;;;4985021;28;20054;-80
2022/03/22 13:33:55;;;;;;;21.20;14.18;;;;;;;;;;4964390;28;20030;-81
2022/03/22 13:36:21;;;;;;;20.50;13.38;;;;;;;;;;4981314;28;20425;-81
2022/03/22 13:38:52;;;;;;;21.95;14.07;;;;;;;;;;4968817;28;20513;-81
2022/03/22 13:41:26;;;;;;;21.45;13.35;;;;;;;;;;4962701;28;20117;-81
2022/03/22 13:43:52;;;;;;;24.00;13.70;;;;;;;;;;4991895;28;20034;-81
2022/03/22 13:46:17;;;;;;;24.38;14.07;;;;;;;;;;4969340;28;20033;-83
2022/03/22 13:48:49;;;;;;;24.45;14.10;;;;;;;;;;4960681;28;20030;-80
2022/03/22 13:51:18;;;;;;;26.15;13.40;;;;;;;;;;4960105;28;20479;-83
2022/03/22 13:53:45;;;;;;;24.90;14.00;;;;;;;;;;4974736;28;20038;-80
2022/03/22 13:56:10;;;;;;;24.92;13.90;;;;;;;;;;4966391;28;20037;-81
2022/03/22 13:58:40;;;;;;;26.42;14.07;;;;;;;;;;4981460;28;20538;-81
2022/03/22 14:01:10;;;;;;;25.52;13.70;;;;;;;;;;4981908;28;20068;-81
2022/03/22 14:03:35;;;;;;;23.75;13.18;;;;;;;;;;4969221;28;20034;-80
2022/03/22 14:06:01;;;;;;;25.80;13.43;;;;;;;;;;4974801;28;20088;-80
2022/03/22 14:08:26;;;;;;;26.25;14.65;;;;;;;;;;4966053;28;20479;-80
2022/03/22 14:10:54;;;;;;;24.15;13.98;;;;;;;;;;4964043;28;20034;-80
2022/03/22 14:13:23;;;;;;;25.20;13.75;;;;;;;;;;4987224;28;20030;-81
2022/03/22 14:15:48;;;;;;;22.52;13.73;;;;;;;;;;4973025;28;20030;-83
2022/03/22 14:18:14;;;;;;;22.00;13.00;;;;;;;;;;4985499;28;20041;-83
2022/03/22 14:20:40;;;;;;;23.98;13.85;;;;;;;;;;4971835;28;20347;-83
2022/03/22 14:23:07;;;;;;;24.80;15.07;;;;;;;;;;5000512;28;20616;-80
2022/03/22 14:25:34;;;;;;;24.83;13.90;;;;;;;;;;4965513;28;20022;-79
2022/03/22 14:28:00;;;;;;;27.30;13.98;;;;;;;;;;4972939;28;20026;-79
2022/03/22 14:30:28;;;;;;;21.95;12.68;;;;;;;;;;4983372;28;20038;-82
2022/03/22 14:32:56;;;;;;;23.33;12.00;;;;;;;;;;4986923;28;20553;-80
2022/03/22 14:38:08;;;;;;;16.05;9.10;;;;;;;;;;4987073;28;20065;-79
2022/03/22 14:40:34;;;;;;;19.13;10.07;;;;;;;;;;4967995;28;20042;-79
2022/03/22 14:43:02;;;;;;;19.20;11.73;;;;;;;;;;4985524;28;20050;-80
2022/03/22 14:45:27;;;;;;;21.27;12.57;;;;;;;;;;4963473;28;20479;-82
2022/03/22 14:47:53;;;;;;;21.80;12.75;;;;;;;;;;4983751;28;20066;-82
2022/03/22 14:50:20;;;;;;;20.92;12.70;;;;;;;;;;4969890;28;20030;-81
2022/03/22 14:55:32;;;;;;;25.20;13.95;;;;;;;;;;4970540;28;20385;-80
2022/03/22 15:00:42;;;;;;;21.92;13.02;;;;;;;;;;4975268;28;20517;-81
2022/03/22 15:03:12;;;;;;;25.52;12.73;;;;;;;;;;4979229;28;20029;-81